Αρχική σελίδα
METAR-TAF:

METAR-TAF

Αεροδρόμια :

Λογκγέαρμπγεν, Νορβηγία

γεωγραφικό πλάτος: 78-15N, γεωγραφικό μήκος: 015-28E, υψόμετρο: 2 μ

Παρών καιρός

Η αναφορά έγινε 19 λεπτά πριν, στις 23:50 UTC
Άνεμος 7 kt από Α/NA
Θερμοκρασία 7°C
Υγρασία 81%
Πίεση 1010 hPa
Ορατότητα 10 χλμ και άνω
Αρκετά νέφη σε ύψος 3100 πόδια

METAR: ENSB 162350Z 12007KT 9999 BKN031 07/04 Q1010 RMK WIND 1400FT 13004KT

Χρόνος: 02:09 (00:09 UTC)

Πρόγνωση Καιρού

Η πρόγνωση ισχύει από τις 17 στις 00 UTC έως τις 17 στις 24 UTC
Άνεμος 10 kt από Α/NA
Ορατότητα 10 χλμ και άνω
Λίγα νέφη σε ύψος 1500 πόδια
Αρκετά νέφη σε ύψος 3000 πόδια
Προσωρινά
από 17 στις 18 UTC έως τις 17 στις 24 UTC
Άνεμος 20 kt από Α/NA με ριπές μέχρι 30 kt

TAF: ENSB 1700/1724 12010KT 9999 FEW015 BKN030 TEMPO 1718/1724 12020G30KT

Μετεωρολογικές αναφορές και προγνώσεις για περισσότερα από 4000 αεροδρόμια (δελτία METAR και TAF).

Οι διαθέσιμοι σταθμοί απεικονίζονται στο χάρτη με κίτρινες και κόκκινες κουκκίδες.

Μετακινήστε το ποντίκι πάνω από τις κουκκίδες για να δείτε το όνομα του σταθμού.

Στη συνέχεια, κάντε κλικ για να δείτε τις μετεωρολογικές αναφορές και τις προγνώσεις καιρού.

Για να αλλάξετε το χάρτη: κάντε κλικ στα πράσινα κουμπιά με τον μαύρο σταυρό για να ζουμάρετε, στο πράσινο κουμπί με την παύλα για να αφαιρέσετε το ζουμ ή στα πράσινα βέλη για να αντιπαραβάλλετε χάρτες.


METAR-TAF: